CheckWX is a tool to help pilots better visualize weather data.  It is not intended as a substitute for an official pre-flight weather briefing.

09:16:05 UTC

CYVP METAR
Kuujjuaq Airport
Kuujjuaq, Canada
Current

16 mins ago

CYVP 250900Z 24005KT 15SM BKN053 BKN100 13/10 A3009 RMK SC6AC1 SLP192
Observed
Aug-25 @ 09:00 UTC
Wind
  • 240° at 5 KTS
Visibility
15 SM
Flight Rules
VFR
Cloud Levels
  • Broken at 5,300' AGL
  • Broken at 10,000' AGL
Temperature
13°C / 55°F
Dewpoint
10°C / 50°F
Humidity
82%
Altimeter
30.09" Hg
Pressure
1018.92 hPa
Previous

1 hour ago

CYVP 250800Z 24004KT 210V270 15SM BKN053 13/10 A3008 RMK SC7 SLP190
Observed
Aug-25 @ 08:00 UTC
Wind
  • 240° at 4 KTS
Visibility
15 SM
Flight Rules
VFR
Cloud Levels
  • Broken at 5,300' AGL
Temperature
13°C / 55°F
Dewpoint
10°C / 50°F
Humidity
82%
Altimeter
30.08" Hg
Pressure
1018.62 hPa
Previous

2 hours ago

CYVP 250700Z 25005KT 200V270 15SM OVC051 13/09 A3008 RMK SC8 SLP190
Observed
Aug-25 @ 07:00 UTC
Wind
  • 250° at 5 KTS
Visibility
15 SM
Flight Rules
VFR
Cloud Levels
  • Overcast at 5,100' AGL
Temperature
13°C / 55°F
Dewpoint
C / 48°F
Humidity
77%
Altimeter
30.08" Hg
Pressure
1018.62 hPa